Time;durP1;ratioP1;P1;durP2;ratioP2;P2;SDS_P1;SDS_P2;PMS_P1;PMS_P2;Temp;Humidity;BMP_temperature;BMP_pressure;BME280_temperature;BME280_humidity;BME280_pressure;Samples;Min_cycle;Max_cycle;Signal;HPM_P1;HPM_P2
2022/03/04 00:01:01;;;;;;;23.73;13.30;;;;;;;5.69;39.89;100862.81;4165286;28;20487;-60
2022/03/04 00:03:04;;;;;;;22.52;12.93;;;;;;;5.64;40.28;100861.78;4176330;28;20068;-60
2022/03/04 00:05:09;;;;;;;22.23;13.02;;;;;;;5.56;40.47;100854.59;4170067;28;20060;-60
2022/03/04 00:07:12;;;;;;;19.90;13.25;;;;;;;5.51;40.63;100861.25;4164037;28;20049;-60
2022/03/04 00:09:15;;;;;;;20.65;12.55;;;;;;;5.59;40.25;100852.16;4169212;28;20441;-60
2022/03/04 00:11:18;;;;;;;20.73;13.73;;;;;;;5.63;40.43;100854.84;4180585;28;20053;-60
2022/03/04 00:13:21;;;;;;;19.73;13.20;;;;;;;5.64;40.37;100857.47;4170572;28;20443;-60
2022/03/04 00:15:24;;;;;;;19.98;13.35;;;;;;;5.54;40.67;100858.78;4164339;28;20053;-61
2022/03/04 00:17:27;;;;;;;22.75;14.27;;;;;;;5.41;40.96;100862.56;4175101;28;20041;-61
2022/03/04 00:19:29;;;;;;;22.30;14.32;;;;;;;5.47;41.00;100864.50;4180060;28;20051;-61
2022/03/04 00:21:34;;;;;;;22.90;14.85;;;;;;;5.47;41.02;100861.94;4164408;28;20041;-60
2022/03/04 00:23:37;;;;;;;23.65;13.73;;;;;;;5.36;41.12;100863.19;4170351;28;20046;-60
2022/03/04 00:25:39;;;;;;;18.15;12.88;;;;;;;5.46;41.12;100857.63;4180326;28;20048;-60
2022/03/04 00:27:42;;;;;;;21.80;13.95;;;;;;;5.33;40.98;100863.06;4174033;28;20042;-60
2022/03/04 00:29:45;;;;;;;19.10;13.20;;;;;;;5.27;41.28;100867.97;4189682;28;20044;-60
2022/03/04 00:31:48;;;;;;;21.90;13.68;;;;;;;5.22;41.22;100868.66;4187176;28;20053;-60
2022/03/04 00:33:50;;;;;;;21.88;12.82;;;;;;;5.17;41.49;100862.44;4167900;28;20045;-60
2022/03/04 00:35:55;;;;;;;19.60;12.60;;;;;;;5.22;41.25;100858.34;4167714;28;20128;-60
2022/03/04 00:37:59;;;;;;;17.58;12.45;;;;;;;5.16;41.44;100870.97;4173902;28;20036;-60
2022/03/04 00:40:02;;;;;;;19.52;13.07;;;;;;;5.11;41.51;100869.91;4182116;28;20041;-60
2022/03/04 00:42:05;;;;;;;19.98;14.02;;;;;;;5.19;41.33;100870.22;4181634;28;20044;-60
2022/03/04 00:44:09;;;;;;;21.50;13.45;;;;;;;5.22;41.43;100876.38;4175775;28;20041;-60
2022/03/04 00:46:13;;;;;;;19.58;14.20;;;;;;;5.31;40.76;100867.28;4183318;28;20048;-60
2022/03/04 00:48:16;;;;;;;18.63;13.20;;;;;;;5.27;41.13;100868.88;4180747;28;20048;-60
2022/03/04 00:50:18;;;;;;;23.77;14.10;;;;;;;5.23;41.02;100867.84;4183389;28;20071;-60
2022/03/04 00:52:21;;;;;;;21.33;13.10;;;;;;;5.21;41.63;100866.91;4168965;28;20052;-60
2022/03/04 00:54:25;;;;;;;19.48;12.82;;;;;;;5.14;41.79;100863.97;4181678;28;20041;-60
2022/03/04 00:56:28;;;;;;;20.93;13.40;;;;;;;5.08;41.99;100869.75;4165883;28;20052;-60
2022/03/04 00:58:31;;;;;;;23.42;13.85;;;;;;;5.05;42.81;100872.19;4172182;28;20049;-60
2022/03/04 01:00:35;;;;;;;22.90;14.95;;;;;;;5.02;42.63;100869.50;4180612;28;20505;-60
2022/03/04 01:02:38;;;;;;;24.98;15.10;;;;;;;4.97;43.08;100871.00;4179915;28;20609;-60
2022/03/04 01:04:41;;;;;;;24.33;13.55;;;;;;;5.01;42.93;100871.19;4181883;28;20041;-60
2022/03/04 01:06:46;;;;;;;21.08;14.05;;;;;;;4.93;42.94;100871.69;4166944;28;20384;-60
2022/03/04 01:08:49;;;;;;;20.75;13.95;;;;;;;4.90;43.42;100873.28;4171455;28;20037;-60
2022/03/04 01:10:54;;;;;;;21.13;14.32;;;;;;;4.90;43.55;100875.88;4181681;28;20040;-60
2022/03/04 01:12:57;;;;;;;24.35;15.57;;;;;;;4.95;43.55;100870.03;4172204;28;20044;-60
2022/03/04 01:15:00;;;;;;;20.48;14.35;;;;;;;4.81;43.51;100872.88;4171691;28;20461;-59
2022/03/04 01:17:05;;;;;;;20.92;13.95;;;;;;;4.86;43.81;100881.72;4181626;28;20403;-60
2022/03/04 01:19:07;;;;;;;26.58;15.60;;;;;;;4.75;43.38;100877.78;4172434;28;20049;-60
2022/03/04 01:21:10;;;;;;;22.90;14.95;;;;;;;4.70;43.84;100868.94;4172616;28;20457;-60
2022/03/04 01:23:13;;;;;;;24.27;14.23;;;;;;;4.70;43.75;100874.09;4193691;28;20594;-60
2022/03/04 01:25:16;;;;;;;22.83;13.95;;;;;;;4.70;43.53;100877.59;4185023;28;20037;-60
2022/03/04 01:27:20;;;;;;;20.45;13.10;;;;;;;4.65;44.23;100875.59;4182443;28;20071;-60
2022/03/04 01:29:23;;;;;;;23.65;15.50;;;;;;;4.62;44.13;100873.78;4174625;28;20038;-60
2022/03/04 01:31:25;;;;;;;20.23;14.02;;;;;;;4.73;43.30;100866.50;4166361;28;20099;-60
2022/03/04 01:33:28;;;;;;;22.67;15.55;;;;;;;4.65;43.45;100865.31;4177234;28;20044;-60
2022/03/04 01:35:31;;;;;;;22.60;14.95;;;;;;;4.67;43.66;100867.16;4183095;28;20052;-61
2022/03/04 01:37:34;;;;;;;21.25;14.77;;;;;;;4.63;43.99;100870.41;4165970;28;20048;-60
2022/03/04 01:39:37;;;;;;;25.52;14.30;;;;;;;4.65;44.18;100867.88;4168889;28;20407;-60
2022/03/04 01:41:40;;;;;;;23.65;15.38;;;;;;;4.60;44.23;100861.63;4180519;28;20044;-60
2022/03/04 01:43:44;;;;;;;22.92;15.15;;;;;;;4.60;44.23;100862.53;4175079;28;20041;-60
2022/03/04 01:45:46;;;;;;;26.52;15.70;;;;;;;4.62;44.81;100860.91;4172524;28;20510;-60
2022/03/04 01:47:49;;;;;;;29.23;15.15;;;;;;;4.57;44.77;100857.25;4177405;28;20041;-60
2022/03/04 01:49:53;;;;;;;20.92;14.27;;;;;;;4.59;44.48;100859.88;4178098;28;20037;-61
2022/03/04 01:51:55;;;;;;;24.90;15.70;;;;;;;4.67;44.23;100859.41;4178052;28;20037;-60
2022/03/04 01:53:58;;;;;;;23.80;15.73;;;;;;;4.60;44.43;100856.47;4180399;28;20614;-60
2022/03/04 01:56:01;;;;;;;22.85;15.65;;;;;;;4.57;44.46;100851.19;4174634;28;20049;-60
2022/03/04 01:58:04;;;;;;;23.13;15.38;;;;;;;4.61;44.48;100853.09;4177826;28;20091;-60
2022/03/04 02:00:11;;;;;;;24.75;16.67;;;;;;;4.72;43.55;100857.03;4186052;28;20101;-60
2022/03/04 02:02:14;;;;;;;23.52;15.55;;;;;;;4.57;43.94;100852.09;4172801;28;20069;-60
2022/03/04 02:04:20;;;;;;;25.25;15.48;;;;;;;4.60;44.12;100851.34;4165931;28;20396;-61
2022/03/04 02:06:23;;;;;;;23.48;16.48;;;;;;;4.55;44.36;100864.00;4177314;28;20057;-60
2022/03/04 02:08:25;;;;;;;25.73;16.40;;;;;;;4.42;44.63;100862.56;4180750;28;20071;-60
2022/03/04 02:10:28;;;;;;;24.30;16.20;;;;;;;4.38;45.16;100868.41;4168421;28;20033;-60
2022/03/04 02:12:31;;;;;;;25.05;14.68;;;;;;;4.31;45.39;100867.22;4179907;28;20552;-60
2022/03/04 02:14:34;;;;;;;24.20;15.30;;;;;;;4.28;45.04;100861.03;4172325;28;20046;-60
2022/03/04 02:16:42;;;;;;;23.92;16.42;;;;;;;4.31;44.90;100863.78;4165702;28;20040;-60
2022/03/04 02:18:46;;;;;;;23.98;16.08;;;;;;;4.38;45.46;100865.84;4166993;28;20515;-60
2022/03/04 02:20:51;;;;;;;24.23;15.70;;;;;;;4.37;44.84;100861.50;4168529;28;20037;-60
2022/03/04 02:22:56;;;;;;;24.58;16.90;;;;;;;4.43;44.79;100855.75;4177174;28;20045;-60
2022/03/04 02:24:58;;;;;;;28.42;17.00;;;;;;;4.36;44.89;100859.72;4177803;28;20095;-60
2022/03/04 02:27:03;;;;;;;25.52;16.10;;;;;;;4.37;45.20;100853.75;4180445;28;20045;-60
2022/03/04 02:29:05;;;;;;;25.00;16.15;;;;;;;4.34;44.82;100869.06;4180596;28;20049;-60
2022/03/04 02:31:08;;;;;;;24.67;17.52;;;;;;;4.28;45.01;100863.63;4169701;28;20048;-60
2022/03/04 02:33:11;;;;;;;26.33;16.90;;;;;;;4.26;44.95;100865.25;4181033;28;20095;-60
2022/03/04 02:35:14;;;;;;;23.85;16.52;;;;;;;4.22;45.24;100865.91;4172106;28;20049;-60
2022/03/04 02:37:19;;;;;;;24.00;15.68;;;;;;;4.19;45.82;100870.13;4166632;28;20442;-60
2022/03/04 02:39:23;;;;;;;24.30;16.30;;;;;;;4.21;45.72;100871.91;4180266;28;20033;-60
2022/03/04 02:41:26;;;;;;;26.08;16.92;;;;;;;4.18;45.58;100864.91;4181667;28;20053;-60
2022/03/04 02:43:28;;;;;;;27.60;17.48;;;;;;;4.15;46.06;100867.34;4169434;28;20037;-61
2022/03/04 02:45:31;;;;;;;25.83;15.63;;;;;;;4.14;46.12;100865.56;4165999;28;20045;-60
2022/03/04 02:47:34;;;;;;;25.70;16.65;;;;;;;4.13;46.94;100863.78;4168594;28;20451;-60
2022/03/04 02:49:37;;;;;;;25.60;16.85;;;;;;;4.10;46.70;100859.38;4170827;28;20498;-60
2022/03/04 02:51:40;;;;;;;27.75;18.35;;;;;;;4.08;46.89;100861.00;4167375;28;20597;-60
2022/03/04 02:53:43;;;;;;;27.13;17.50;;;;;;;4.09;46.63;100857.63;4178993;28;20083;-60
2022/03/04 02:55:47;;;;;;;30.35;17.33;;;;;;;4.04;46.94;100865.94;4171405;28;20049;-60
2022/03/04 02:57:50;;;;;;;24.27;16.35;;;;;;;3.97;46.92;100857.94;4181441;28;20106;-60
2022/03/04 02:59:53;;;;;;;25.15;16.52;;;;;;;4.05;46.93;100858.28;4171357;28;20100;-60
2022/03/04 03:01:55;;;;;;;27.38;17.17;;;;;;;4.00;47.77;100849.47;4180079;28;20044;-60
2022/03/04 03:03:58;;;;;;;27.30;17.83;;;;;;;3.97;47.59;100862.19;4168898;28;20041;-60
2022/03/04 03:06:01;;;;;;;26.30;16.88;;;;;;;3.92;47.44;100856.84;4180793;28;20399;-60
2022/03/04 03:08:04;;;;;;;28.13;17.35;;;;;;;3.99;47.79;100855.44;4172788;28;20048;-60
2022/03/04 03:10:09;;;;;;;29.65;18.23;;;;;;;4.00;47.37;100858.09;4173200;28;20674;-60
2022/03/04 03:12:13;;;;;;;29.33;18.08;;;;;;;3.95;48.05;100863.81;4163795;28;20141;-60
2022/03/04 03:14:16;;;;;;;25.20;17.33;;;;;;;3.94;47.50;100862.03;4177060;28;20056;-60
2022/03/04 03:16:19;;;;;;;25.40;17.45;;;;;;;3.98;47.42;100856.25;4181116;28;20091;-60
2022/03/04 03:18:24;;;;;;;27.30;17.88;;;;;;;3.92;47.52;100863.69;4165266;28;20045;-60
2022/03/04 03:20:26;;;;;;;25.33;16.83;;;;;;;3.85;47.82;100857.34;4168251;28;20048;-60
2022/03/04 03:22:29;;;;;;;27.02;18.45;;;;;;;3.85;47.77;100862.50;4163935;28;20045;-60
2022/03/04 03:24:32;;;;;;;25.63;17.55;;;;;;;3.82;47.63;100859.78;4173692;28;20037;-60
2022/03/04 03:26:35;;;;;;;25.23;17.30;;;;;;;3.83;47.95;100858.97;4181265;28;20053;-60
2022/03/04 03:28:39;;;;;;;28.75;18.15;;;;;;;3.81;48.38;100856.34;4179514;28;20040;-60
2022/03/04 03:30:42;;;;;;;27.20;17.20;;;;;;;3.79;47.64;100864.78;4173372;28;20438;-60
2022/03/04 03:32:44;;;;;;;28.13;17.90;;;;;;;3.77;47.71;100854.41;4169443;28;20296;-60
2022/03/04 03:34:47;;;;;;;24.88;16.42;;;;;;;3.75;48.49;100856.03;4168952;28;20041;-60
2022/03/04 03:36:52;;;;;;;24.80;16.65;;;;;;;3.76;48.49;100855.22;4181048;28;20041;-60
2022/03/04 03:38:54;;;;;;;30.20;17.70;;;;;;;3.76;48.25;100857.78;4173320;28;20041;-60
2022/03/04 03:40:57;;;;;;;26.15;17.15;;;;;;;3.74;48.55;100856.84;4164593;28;20111;-60
2022/03/04 03:43:15;;;;;;;25.17;15.52;;;;;;;3.69;48.58;100852.28;4163831;28;20048;-60
2022/03/04 03:45:20;;;;;;;24.88;17.17;;;;;;;3.69;48.69;100860.88;4164262;28;20040;-60
2022/03/04 03:47:22;;;;;;;25.47;17.70;;;;;;;3.66;48.74;100855.59;4180344;28;20118;-60
2022/03/04 03:49:25;;;;;;;27.05;18.17;;;;;;;3.79;48.51;100855.34;4177808;28;20303;-60
2022/03/04 03:51:28;;;;;;;24.77;17.77;;;;;;;3.69;48.65;100855.72;4178635;28;20049;-60
2022/03/04 03:53:30;;;;;;;26.13;18.10;;;;;;;3.65;48.48;100852.13;4166219;28;20042;-60
2022/03/04 03:55:33;;;;;;;26.67;17.58;;;;;;;3.62;49.23;100851.09;4178876;28;20525;-60
2022/03/04 03:57:36;;;;;;;26.38;17.13;;;;;;;3.60;49.17;100853.59;4179203;28;20045;-60
2022/03/04 03:59:39;;;;;;;28.25;18.38;;;;;;;3.60;49.31;100857.88;4181007;28;20061;-60
2022/03/04 04:01:43;;;;;;;26.13;18.27;;;;;;;3.60;49.08;100857.88;4175617;28;20120;-60
2022/03/04 04:03:45;;;;;;;26.15;17.10;;;;;;;3.55;49.31;100862.78;4163529;28;20072;-61
2022/03/04 04:05:48;;;;;;;28.88;18.38;;;;;;;3.49;49.19;100863.38;4171553;28;20442;-60
2022/03/04 04:07:51;;;;;;;26.25;16.95;;;;;;;3.50;49.33;100877.09;4180575;28;20548;-60
2022/03/04 04:09:54;;;;;;;32.70;19.90;;;;;;;3.50;49.36;100864.22;4166151;28;20414;-60
2022/03/04 04:11:57;;;;;;;32.63;20.13;;;;;;;3.48;49.09;100866.72;4180298;28;20049;-60
2022/03/04 04:13:59;;;;;;;27.27;19.23;;;;;;;3.47;49.33;100870.09;4163364;28;20041;-60
2022/03/04 04:16:02;;;;;;;28.45;20.15;;;;;;;3.48;49.75;100871.88;4191129;28;20052;-61
2022/03/04 04:18:06;;;;;;;28.88;19.83;;;;;;;3.47;49.48;100871.78;4179075;28;20224;-60
2022/03/04 04:20:10;;;;;;;27.30;19.98;;;;;;;3.42;50.00;100874.13;4164310;28;20041;-60
2022/03/04 04:22:12;;;;;;;32.25;20.65;;;;;;;3.43;49.65;100877.59;4168052;28;20037;-60
2022/03/04 04:24:15;;;;;;;32.33;19.38;;;;;;;3.43;49.84;100878.50;4180120;28;20041;-60
2022/03/04 04:26:18;;;;;;;28.00;18.80;;;;;;;3.42;49.71;100873.28;4171292;28;20111;-61
2022/03/04 04:28:25;;;;;;;26.05;18.27;;;;;;;3.35;50.18;100882.34;4169772;28;20045;-60
2022/03/04 04:30:29;;;;;;;27.77;18.00;;;;;;;3.37;49.83;100879.84;4165001;28;20041;-61
2022/03/04 04:32:32;;;;;;;29.73;20.27;;;;;;;3.37;49.73;100872.16;4176337;28;20461;-60
2022/03/04 04:34:36;;;;;;;28.27;19.63;;;;;;;3.35;49.87;100887.50;4178789;28;20037;-60
2022/03/04 04:36:39;;;;;;;29.48;18.95;;;;;;;3.29;49.67;100882.03;4169554;28;20053;-60
2022/03/04 04:38:42;;;;;;;31.70;20.00;;;;;;;3.22;50.38;100885.97;4166765;28;20041;-61
2022/03/04 04:40:44;;;;;;;31.92;20.38;;;;;;;3.20;50.29;100889.28;4172041;28;20049;-60
2022/03/04 04:42:47;;;;;;;26.58;18.92;;;;;;;3.22;50.30;100890.25;4177551;28;20057;-60
2022/03/04 04:44:50;;;;;;;28.90;19.73;;;;;;;3.20;50.67;100889.28;4177485;28;20087;-60
2022/03/04 04:46:53;;;;;;;28.60;19.45;;;;;;;3.22;50.85;100897.97;4167365;28;20041;-60
2022/03/04 04:48:56;;;;;;;29.90;19.60;;;;;;;3.17;50.95;100905.44;4174291;28;20663;-61
2022/03/04 04:51:00;;;;;;;37.92;20.85;;;;;;;3.16;50.72;100898.53;4172562;28;20044;-61
2022/03/04 04:53:05;;;;;;;30.10;19.58;;;;;;;3.06;50.58;100902.28;4179174;28;20123;-60
2022/03/04 04:55:09;;;;;;;31.88;19.65;;;;;;;3.02;51.00;100907.19;4178372;28;20079;-61
2022/03/04 04:57:11;;;;;;;34.30;20.17;;;;;;;2.99;50.96;100889.94;4172029;28;20114;-60
2022/03/04 04:59:14;;;;;;;33.03;20.02;;;;;;;2.95;51.02;100904.31;4168476;28;20072;-61
2022/03/04 05:01:17;;;;;;;35.28;20.77;;;;;;;2.91;51.47;100904.09;4164920;28;20049;-61
2022/03/04 05:03:21;;;;;;;25.38;18.17;;;;;;;2.96;51.50;100902.63;4163887;28;20046;-61
2022/03/04 05:05:24;;;;;;;34.10;21.55;;;;;;;2.94;51.49;100899.09;4163834;28;20068;-61
2022/03/04 05:07:28;;;;;;;29.83;19.63;;;;;;;2.91;51.66;100906.66;4159986;28;20503;-62
2022/03/04 05:09:31;;;;;;;32.65;21.40;;;;;;;2.82;51.93;100906.16;4171977;28;20088;-61
2022/03/04 05:11:33;;;;;;;29.88;19.20;;;;;;;2.88;51.33;100914.19;4172755;28;20049;-61
2022/03/04 05:13:36;;;;;;;31.30;20.27;;;;;;;2.83;51.98;100911.38;4176498;28;20049;-61
2022/03/04 05:15:39;;;;;;;29.65;20.33;;;;;;;2.93;51.46;100917.88;4163591;28;20041;-61
2022/03/04 05:17:44;;;;;;;28.02;18.88;;;;;;;2.83;51.80;100921.63;4166601;28;20124;-61
2022/03/04 05:19:47;;;;;;;31.33;20.38;;;;;;;2.81;51.87;100919.81;4172258;28;20507;-60
2022/03/04 05:21:49;;;;;;;31.45;20.08;;;;;;;2.77;52.27;100929.91;4165221;28;20139;-60
2022/03/04 05:24:00;;;;;;;29.40;19.85;;;;;;;2.75;52.25;100936.66;4169299;28;20041;-61
2022/03/04 05:26:02;;;;;;;35.45;21.85;;;;;;;2.67;52.51;100932.78;4177476;28;20052;-60
2022/03/04 05:28:05;;;;;;;32.97;21.58;;;;;;;2.74;52.12;100929.72;4175777;28;20184;-60
2022/03/04 05:30:09;;;;;;;32.50;21.10;;;;;;;2.70;52.41;100927.81;4178054;28;20037;-60
2022/03/04 05:32:11;;;;;;;32.67;20.00;;;;;;;2.66;52.20;100927.56;4180574;28;20103;-61
2022/03/04 05:34:15;;;;;;;29.38;20.60;;;;;;;2.66;52.64;100930.13;4168471;28;20033;-60
2022/03/04 05:36:18;;;;;;;30.38;19.65;;;;;;;2.61;52.57;100932.44;4184246;28;20530;-60
2022/03/04 05:38:20;;;;;;;33.03;20.05;;;;;;;2.59;52.98;100927.22;4195594;28;20122;-60
2022/03/04 05:40:25;;;;;;;31.98;19.80;;;;;;;2.66;52.42;100936.16;4192974;28;20090;-60
2022/03/04 05:42:28;;;;;;;29.98;20.35;;;;;;;2.60;52.42;100934.16;4181557;28;20041;-60
2022/03/04 05:44:30;;;;;;;32.10;20.48;;;;;;;2.58;52.51;100932.28;4180582;28;20468;-60
2022/03/04 05:46:33;;;;;;;30.95;22.13;;;;;;;2.65;52.25;100939.50;4177250;28;20037;-60
2022/03/04 05:48:36;;;;;;;34.17;21.95;;;;;;;2.58;52.63;100942.56;4176947;28;20046;-61
2022/03/04 05:50:39;;;;;;;34.20;21.33;;;;;;;2.57;52.59;100948.47;4166319;28;20466;-60
2022/03/04 05:52:42;;;;;;;30.15;18.85;;;;;;;2.54;52.48;100948.31;4170633;28;20049;-60
2022/03/04 05:54:45;;;;;;;28.70;19.38;;;;;;;2.55;53.02;100947.53;4181361;28;20049;-60
2022/03/04 05:56:49;;;;;;;37.08;19.80;;;;;;;2.57;52.69;100949.38;4182639;28;20534;-60
2022/03/04 05:58:52;;;;;;;32.53;20.30;;;;;;;2.54;52.81;100950.88;4167750;28;20045;-60
2022/03/04 06:00:54;;;;;;;33.25;19.77;;;;;;;2.54;53.03;100950.88;4167389;28;20093;-61
2022/03/04 06:02:58;;;;;;;29.85;20.60;;;;;;;2.54;53.08;100946.66;4181759;28;20067;-60
2022/03/04 06:05:01;;;;;;;28.38;17.70;;;;;;;2.53;53.24;100942.31;4181089;28;20041;-60
2022/03/04 06:07:04;;;;;;;28.63;18.30;;;;;;;2.50;53.41;100948.94;4174617;28;20454;-60
2022/03/04 06:09:07;;;;;;;34.75;20.65;;;;;;;2.39;53.10;100945.78;4180656;28;20037;-60
2022/03/04 06:11:11;;;;;;;37.65;22.58;;;;;;;2.32;53.69;100949.69;4182159;28;20517;-60
2022/03/04 06:13:15;;;;;;;31.75;19.67;;;;;;;2.29;53.91;100949.53;4181594;28;20040;-60
2022/03/04 06:15:17;;;;;;;34.97;20.48;;;;;;;2.26;53.75;100947.69;4171980;28;20046;-60
2022/03/04 06:17:21;;;;;;;32.90;20.50;;;;;;;2.22;54.01;100953.44;4165861;28;20450;-60
2022/03/04 06:19:24;;;;;;;31.55;21.15;;;;;;;2.18;54.20;100960.91;4165626;28;20419;-60
2022/03/04 06:21:27;;;;;;;30.75;20.85;;;;;;;2.24;54.32;100954.41;4165753;28;20107;-60
2022/03/04 06:23:30;;;;;;;27.88;19.55;;;;;;;2.21;54.27;100961.06;4164951;28;20072;-60
2022/03/04 06:25:32;;;;;;;32.15;20.33;;;;;;;2.09;54.71;100964.69;4191274;28;20501;-60
2022/03/04 06:27:35;;;;;;;30.98;19.17;;;;;;;2.09;54.61;100963.81;4176508;28;20462;-60
2022/03/04 06:29:39;;;;;;;33.35;19.63;;;;;;;2.15;54.05;100961.59;4172419;28;20491;-61
2022/03/04 06:31:42;;;;;;;31.67;19.60;;;;;;;2.15;54.08;100971.84;4180741;28;20729;-60
2022/03/04 06:33:46;;;;;;;41.22;22.05;;;;;;;2.08;54.61;100972.31;4172712;28;20283;-61
2022/03/04 06:35:49;;;;;;;35.83;20.45;;;;;;;2.17;53.95;100977.06;4180822;28;20033;-60
2022/03/04 06:37:52;;;;;;;45.45;21.60;;;;;;;2.16;54.46;100991.59;4176579;28;20046;-60
2022/03/04 06:39:55;;;;;;;39.67;21.67;;;;;;;2.07;54.79;100989.38;4180898;28;20049;-60
2022/03/04 06:41:57;;;;;;;37.05;22.90;;;;;;;2.12;55.04;100992.22;4178848;28;20557;-60
2022/03/04 06:44:00;;;;;;;40.40;21.83;;;;;;;2.11;55.70;100987.88;4173498;28;20039;-60
2022/03/04 06:46:04;;;;;;;44.17;25.13;;;;;;;2.06;55.71;100994.44;4180104;28;20060;-60
2022/03/04 06:48:07;;;;;;;47.53;24.67;;;;;;;2.09;55.45;101003.16;4171956;28;20095;-60
2022/03/04 06:50:10;;;;;;;63.58;22.77;;;;;;;2.11;55.50;100999.81;4181446;28;20099;-61
2022/03/04 06:52:13;;;;;;;59.53;25.67;;;;;;;2.16;55.32;101006.06;4163214;28;20126;-60
2022/03/04 06:54:16;;;;;;;36.78;22.38;;;;;;;2.32;54.53;101010.41;4180648;28;20046;-60
2022/03/04 06:56:18;;;;;;;38.20;23.58;;;;;;;2.40;54.15;101015.16;4179082;28;20047;-60
2022/03/04 06:58:26;;;;;;;36.17;22.90;;;;;;;2.50;54.16;101014.00;4181312;28;20055;-60
2022/03/04 07:00:29;;;;;;;36.22;24.98;;;;;;;2.53;53.54;101014.16;4177500;28;20454;-61
2022/03/04 07:02:35;;;;;;;37.28;23.80;;;;;;;2.57;53.69;101020.34;4169564;28;20053;-60
2022/03/04 07:04:38;;;;;;;;;;;;;;;2.52;53.87;101021.78;4176242;28;20048;-60
2022/03/04 07:06:40;;;;;;;35.33;22.90;;;;;;;2.39;54.07;101023.66;4179721;28;20496;-60
2022/03/04 07:08:43;;;;;;;37.97;23.08;;;;;;;2.40;54.32;101032.25;4180525;28;20045;-60
2022/03/04 07:10:47;;;;;;;33.88;22.85;;;;;;;2.36;54.28;101027.72;4179945;28;20045;-61
2022/03/04 07:12:51;;;;;;;36.42;24.63;;;;;;;2.43;54.39;101035.84;4180493;28;20099;-61
2022/03/04 07:14:54;;;;;;;36.08;22.70;;;;;;;2.37;54.15;101032.94;4181012;28;20359;-61
2022/03/04 07:16:58;;;;;;;39.97;24.25;;;;;;;2.41;54.69;101040.03;4176271;28;20059;-60
2022/03/04 07:19:02;;;;;;;43.50;24.55;;;;;;;2.64;53.88;101044.69;4176284;28;20098;-60
2022/03/04 07:21:05;;;;;;;40.90;24.45;;;;;;;2.49;54.19;101039.56;4171702;28;20052;-60
2022/03/04 07:23:08;;;;;;;40.03;25.77;;;;;;;2.55;53.97;101048.50;4162931;28;20038;-60
2022/03/04 07:25:12;;;;;;;38.10;24.85;;;;;;;2.48;53.97;101040.38;4184737;28;20466;-60
2022/03/04 07:27:15;;;;;;;47.45;25.33;;;;;;;2.51;54.57;101055.94;4179999;28;20067;-60
2022/03/04 07:29:18;;;;;;;40.67;23.85;;;;;;;2.60;54.03;101047.06;4181231;28;20037;-60
2022/03/04 07:31:20;;;;;;;42.83;25.20;;;;;;;2.60;54.10;101043.63;4181133;28;20045;-60
2022/03/04 07:33:23;;;;;;;39.22;23.77;;;;;;;2.70;53.56;101045.00;4179058;28;20075;-61
2022/03/04 07:35:27;;;;;;;37.97;22.17;;;;;;;2.69;53.77;101044.13;4168988;28;20042;-60
2022/03/04 07:37:31;;;;;;;36.53;23.15;;;;;;;2.65;54.29;101046.47;4164661;28;20033;-60
2022/03/04 07:39:34;;;;;;;37.25;23.88;;;;;;;2.70;54.13;101048.47;4164568;28;20084;-60
2022/03/04 07:41:37;;;;;;;40.17;24.42;;;;;;;2.77;53.81;101042.00;4164484;28;20045;-61
2022/03/04 07:43:40;;;;;;;56.55;25.25;;;;;;;2.88;53.70;101050.31;4163775;28;20087;-61
2022/03/04 07:45:48;;;;;;;42.92;24.67;;;;;;;3.00;53.31;101048.38;4179669;28;20403;-60
2022/03/04 07:47:51;;;;;;;42.45;24.13;;;;;;;3.23;52.93;101051.31;4164490;28;20415;-61
2022/03/04 07:49:54;;;;;;;37.65;25.30;;;;;;;3.31;52.14;101048.34;4164485;28;20105;-60
2022/03/04 07:51:58;;;;;;;44.28;25.33;;;;;;;3.42;51.55;101051.47;4164700;28;20052;-61
2022/03/04 07:54:01;;;;;;;46.43;24.83;;;;;;;3.47;51.19;101052.59;4163947;28;20119;-61
2022/03/04 07:56:04;;;;;;;43.17;25.48;;;;;;;3.47;51.04;101049.16;4179400;28;20503;-60
2022/03/04 07:58:07;;;;;;;47.70;26.05;;;;;;;3.53;50.73;101056.28;4164342;28;20053;-60
2022/03/04 08:00:12;;;;;;;45.60;25.42;;;;;;;3.44;51.57;101059.28;4164297;28;20057;-61
2022/03/04 08:02:15;;;;;;;39.70;24.48;;;;;;;3.48;51.40;101054.38;4163391;28;20053;-61
2022/03/04 08:04:18;;;;;;;44.92;25.52;;;;;;;3.52;51.59;101062.22;4164258;28;20041;-61
2022/03/04 08:06:21;;;;;;;40.10;24.55;;;;;;;3.46;52.17;101061.13;4169836;28;20033;-60
2022/03/04 08:08:25;;;;;;;50.75;25.77;;;;;;;3.70;51.50;101060.63;4175794;28;20047;-60
2022/03/04 08:10:28;;;;;;;;;;;;;;;3.68;50.91;101067.41;4171860;28;20034;-61
2022/03/04 08:12:31;;;;;;;47.05;25.15;;;;;;;3.72;51.52;101074.44;4170445;28;20023;-60
2022/03/04 08:14:34;;;;;;;47.75;27.67;;;;;;;3.65;51.55;101080.06;4179920;28;20037;-60
2022/03/04 08:16:36;;;;;;;54.38;27.98;;;;;;;3.61;51.56;101075.59;4178481;28;20083;-61
2022/03/04 08:18:39;;;;;;;47.67;26.27;;;;;;;3.76;51.20;101073.78;4179262;28;20041;-60
2022/03/04 08:20:46;;;;;;;48.95;27.00;;;;;;;3.82;51.01;101076.69;4180575;28;20037;-61
2022/03/04 08:22:49;;;;;;;48.00;27.25;;;;;;;3.93;50.88;101086.63;4179685;28;20033;-60
2022/03/04 08:24:53;;;;;;;45.50;27.00;;;;;;;3.89;51.03;101075.31;4180565;28;20044;-60
2022/03/04 08:26:56;;;;;;;45.92;27.70;;;;;;;4.07;49.89;101075.34;4164717;28;20384;-60
2022/03/04 08:28:59;;;;;;;39.72;24.77;;;;;;;4.19;49.86;101070.84;4163942;28;20485;-60
2022/03/04 08:31:03;;;;;;;45.00;27.33;;;;;;;4.26;49.62;101079.72;4164036;28;20048;-60
2022/03/04 08:33:06;;;;;;;41.22;26.65;;;;;;;4.43;49.29;101074.56;4178320;28;20049;-61
2022/03/04 08:35:10;;;;;;;40.67;26.75;;;;;;;4.49;48.77;101080.00;4164034;28;20042;-60
2022/03/04 08:37:13;;;;;;;43.13;25.63;;;;;;;4.43;48.76;101074.56;4163914;28;20092;-59
2022/03/04 08:39:16;;;;;;;53.25;26.65;;;;;;;4.35;49.09;101077.63;4171800;28;20041;-60
2022/03/04 08:41:20;;;;;;;62.80;26.73;;;;;;;4.52;49.73;101080.16;4169564;28;20037;-60
2022/03/04 08:43:23;;;;;;;45.05;25.48;;;;;;;4.51;49.47;101079.28;4171632;28;20041;-60
2022/03/04 08:45:26;;;;;;;38.13;25.98;;;;;;;4.52;49.55;101078.44;4180422;28;20491;-60
2022/03/04 08:47:29;;;;;;;53.78;27.55;;;;;;;4.68;48.56;101074.03;4168720;28;20050;-60
2022/03/04 08:49:32;;;;;;;45.30;25.92;;;;;;;4.60;48.53;101080.50;4163585;28;20447;-60
2022/03/04 08:51:35;;;;;;;49.03;25.75;;;;;;;4.64;49.18;101085.00;4170437;28;20041;-60
2022/03/04 08:53:38;;;;;;;42.63;28.20;;;;;;;4.75;47.92;101078.69;4173734;28;20111;-60
2022/03/04 08:55:44;;;;;;;41.92;27.30;;;;;;;4.84;48.27;101084.25;4166930;28;20126;-60
2022/03/04 08:57:48;;;;;;;48.17;27.02;;;;;;;4.75;48.32;101086.41;4194566;28;20060;-60
2022/03/04 08:59:51;;;;;;;43.33;27.00;;;;;;;4.81;47.74;101083.25;4178294;28;20588;-60
2022/03/04 09:01:54;;;;;;;39.78;26.35;;;;;;;4.81;47.17;101073.81;4174681;28;20064;-60
2022/03/04 09:03:57;;;;;;;44.97;27.50;;;;;;;4.85;47.10;101078.31;4181015;28;20068;-60
2022/03/04 09:06:00;;;;;;;34.22;23.73;;;;;;;4.74;47.35;101082.06;4183465;28;20037;-60
2022/03/04 09:08:03;;;;;;;42.30;25.42;;;;;;;4.87;47.87;101079.25;4172876;28;20037;-60
2022/03/04 09:10:07;;;;;;;39.92;26.30;;;;;;;5.02;46.67;101078.22;4179112;28;20060;-61
2022/03/04 09:12:10;;;;;;;29.97;20.97;;;;;;;5.02;47.28;101073.97;4182235;28;20041;-61
2022/03/04 09:14:15;;;;;;;42.72;25.83;;;;;;;5.25;46.97;101076.69;4178638;28;20045;-61
2022/03/04 09:16:18;;;;;;;45.75;26.23;;;;;;;5.43;46.16;101076.63;4168756;28;20060;-60
2022/03/04 09:18:21;;;;;;;35.55;23.17;;;;;;;5.44;45.98;101074.97;4183130;28;20383;-61
2022/03/04 09:20:23;;;;;;;38.97;26.45;;;;;;;5.65;44.75;101077.59;4198180;28;20036;-60
2022/03/04 09:22:27;;;;;;;37.58;24.83;;;;;;;5.51;45.41;101072.72;4182143;28;20044;-60
2022/03/04 09:24:29;;;;;;;40.03;26.05;;;;;;;5.66;44.35;101075.09;4182915;28;20049;-60
2022/03/04 09:26:32;;;;;;;39.53;26.25;;;;;;;5.68;44.43;101078.63;4171306;28;20029;-60